Caledonia, WI

4:05 AM CDT on August 28, 2016 (GMT -0500)
60th Street | | Change Station

Elev 711 ft 42.83 °N, 87.99 °W | Updated 3 minutes ago

Partly Cloudy
Partly Cloudy
63.5 °F
Feels Like 63.5 °F
N
1.2
Wind Variable Wind from WSW
Gusts 3.1 mph

Today
High -- | Low -- °F
--% Chance of Precip.
Yesterday
High -- | Low -- °F
Precip. -- in
Pressure 30.13 in
Visibility 5.0 miles
Clouds Few 3200 ft
Dew Point 64 °F
Humidity 100%
Rainfall 0.00 in
Snow Depth Not available.
6:12 AM 7:32 PM
Waning Crescent, 17% visible
METAR KRAC 280853Z AUTO 32004KT 5SM BR FEW032 21/19 A3014 RMK AO2 LTG DSNT S SLP203 T02060194 53008
Pressure 30.13 in
Visibility 5.0 miles
Clouds Few 3200 ft
Dew Point 64 °F
Humidity 100%
Rainfall 0.00 in
Snow Depth Not available.
6:12 AM 7:32 PM
Waning Crescent, 17% visible
METAR KRAC 280853Z AUTO 32004KT 5SM BR FEW032 21/19 A3014 RMK AO2 LTG DSNT S SLP203 T02060194 53008

10-Day Weather Forecast

Almanac

Astronomy

Aug. 28, 2016 Rise Set
Actual Time
Civil Twilight
Nautical Twilight
Astronomical Twilight
Moon
Length of Visible Light
Length of Day
Tomorrow will be .
, % of the Moon is Illuminated

Today's Extremes

State Highs State Lows

Community

WunderPhotos

Upload Photos

1,935,540 photos uploaded!

WunderBlog® & News

Nearby

Air Quality

  Air Quality AQ Index Pollutant
Not available.

Snow Depth

Station Depth Elevation

Earthquake Activity

City Distance Mag. Time & Date
Minimum magnitude displayed is 2.5.

Coastal Water Temperatures

Place Temperature

Stations

Nearby Weather Stations

Station Location Temp. Windchill Dew Point Humidity Wind Precip. Elev Updated Type
                   

Watches & Warnings

There are currently no watches in effect.